sensor_id;sensor_type;location;lat;lon;timestamp;pressure;altitude;pressure_sealevel;temperature;humidity
34983;BME280;21187;50.976;13.720;2022-09-09T00:03:17;97893.66;;;19.69;49.00
34983;BME280;21187;50.976;13.720;2022-09-09T00:08:26;97882.75;;;19.65;48.80
34983;BME280;21187;50.976;13.720;2022-09-09T00:13:41;97877.28;;;19.65;48.77
34983;BME280;21187;50.976;13.720;2022-09-09T00:23:55;97875.72;;;19.64;48.70
34983;BME280;21187;50.976;13.720;2022-09-09T00:34:21;97868.72;;;19.59;48.83
34983;BME280;21187;50.976;13.720;2022-09-09T00:39:42;97862.88;;;19.57;48.61
34983;BME280;21187;50.976;13.720;2022-09-09T01:00:32;97888.97;;;19.45;48.90
34983;BME280;21187;50.976;13.720;2022-09-09T01:06:11;97878.03;;;19.42;48.81
34983;BME280;21187;50.976;13.720;2022-09-09T01:11:41;97880.81;;;19.38;48.66
34983;BME280;21187;50.976;13.720;2022-09-09T01:16:47;97886.25;;;19.42;48.73
34983;BME280;21187;50.976;13.720;2022-09-09T01:22:19;97874.03;;;19.47;48.51
34983;BME280;21187;50.976;13.720;2022-09-09T01:27:24;97881.13;;;19.44;48.40
34983;BME280;21187;50.976;13.720;2022-09-09T01:32:57;97870.50;;;19.46;48.41
34983;BME280;21187;50.976;13.720;2022-09-09T01:38:00;97874.44;;;19.45;48.30
34983;BME280;21187;50.976;13.720;2022-09-09T01:43:03;97874.03;;;19.47;48.20
34983;BME280;21187;50.976;13.720;2022-09-09T01:48:05;97868.88;;;19.49;48.21
34983;BME280;21187;50.976;13.720;2022-09-09T01:53:19;97867.00;;;19.45;48.28
34983;BME280;21187;50.976;13.720;2022-09-09T01:58:33;97859.16;;;19.44;48.38
34983;BME280;21187;50.976;13.720;2022-09-09T02:03:36;97859.22;;;19.40;48.43
34983;BME280;21187;50.976;13.720;2022-09-09T02:08:49;97860.41;;;19.39;48.47
34983;BME280;21187;50.976;13.720;2022-09-09T02:13:56;97860.31;;;19.47;48.40
34983;BME280;21187;50.976;13.720;2022-09-09T02:24:22;97867.22;;;19.55;48.14
34983;BME280;21187;50.976;13.720;2022-09-09T02:29:40;97866.03;;;19.56;48.32
34983;BME280;21187;50.976;13.720;2022-09-09T02:34:53;97864.34;;;19.62;48.12
34983;BME280;21187;50.976;13.720;2022-09-09T02:39:58;97871.03;;;19.61;47.98
34983;BME280;21187;50.976;13.720;2022-09-09T02:45:00;97873.78;;;19.61;48.09
34983;BME280;21187;50.976;13.720;2022-09-09T02:50:23;97872.25;;;19.60;48.06
34983;BME280;21187;50.976;13.720;2022-09-09T03:00:39;97871.28;;;19.47;48.12
34983;BME280;21187;50.976;13.720;2022-09-09T03:05:43;97868.19;;;19.44;48.00
34983;BME280;21187;50.976;13.720;2022-09-09T03:10:45;97886.22;;;19.45;48.09
34983;BME280;21187;50.976;13.720;2022-09-09T03:15:49;97885.41;;;19.45;48.10
34983;BME280;21187;50.976;13.720;2022-09-09T03:20:54;97892.50;;;19.42;48.25
34983;BME280;21187;50.976;13.720;2022-09-09T03:25:56;97883.50;;;19.42;48.19
34983;BME280;21187;50.976;13.720;2022-09-09T03:31:09;97876.25;;;19.28;48.36
34983;BME280;21187;50.976;13.720;2022-09-09T03:36:15;97872.38;;;19.25;48.42
34983;BME280;21187;50.976;13.720;2022-09-09T03:41:17;97877.09;;;19.25;48.49
34983;BME280;21187;50.976;13.720;2022-09-09T03:46:22;97865.53;;;19.37;48.12
34983;BME280;21187;50.976;13.720;2022-09-09T03:51:25;97864.34;;;19.38;48.01
34983;BME280;21187;50.976;13.720;2022-09-09T03:56:28;97879.16;;;19.44;47.90
34983;BME280;21187;50.976;13.720;2022-09-09T04:01:31;97872.81;;;19.48;47.83
34983;BME280;21187;50.976;13.720;2022-09-09T04:06:33;97868.19;;;19.44;47.77
34983;BME280;21187;50.976;13.720;2022-09-09T04:11:35;97873.66;;;19.44;47.68
34983;BME280;21187;50.976;13.720;2022-09-09T04:16:37;97876.00;;;19.46;47.61
34983;BME280;21187;50.976;13.720;2022-09-09T04:21:40;97868.84;;;19.52;47.50
34983;BME280;21187;50.976;13.720;2022-09-09T04:26:43;97878.69;;;19.50;47.17
34983;BME280;21187;50.976;13.720;2022-09-09T04:31:45;97883.63;;;19.58;47.16
34983;BME280;21187;50.976;13.720;2022-09-09T04:36:47;97874.56;;;19.61;47.08
34983;BME280;21187;50.976;13.720;2022-09-09T04:41:49;97879.16;;;19.68;46.96
34983;BME280;21187;50.976;13.720;2022-09-09T04:46:51;97884.25;;;19.70;47.03
34983;BME280;21187;50.976;13.720;2022-09-09T04:51:54;97890.09;;;19.72;46.78
34983;BME280;21187;50.976;13.720;2022-09-09T04:56:57;97883.47;;;19.69;46.80
34983;BME280;21187;50.976;13.720;2022-09-09T05:01:59;97891.25;;;19.74;46.76
34983;BME280;21187;50.976;13.720;2022-09-09T05:07:03;97893.91;;;19.78;46.74
34983;BME280;21187;50.976;13.720;2022-09-09T05:12:05;97886.31;;;19.89;46.85
34983;BME280;21187;50.976;13.720;2022-09-09T05:17:10;97889.28;;;19.99;47.08
34983;BME280;21187;50.976;13.720;2022-09-09T05:22:20;97891.59;;;20.00;47.15
34983;BME280;21187;50.976;13.720;2022-09-09T05:27:24;97888.50;;;19.98;47.45
34983;BME280;21187;50.976;13.720;2022-09-09T05:32:26;97908.09;;;20.00;47.37
34983;BME280;21187;50.976;13.720;2022-09-09T05:37:28;97910.72;;;20.07;47.73
34983;BME280;21187;50.976;13.720;2022-09-09T05:42:32;97920.41;;;20.16;47.61
34983;BME280;21187;50.976;13.720;2022-09-09T05:47:35;97911.66;;;20.21;47.66
34983;BME280;21187;50.976;13.720;2022-09-09T05:52:41;97924.94;;;20.26;47.70
34983;BME280;21187;50.976;13.720;2022-09-09T05:57:48;97927.19;;;20.31;47.53
34983;BME280;21187;50.976;13.720;2022-09-09T06:02:51;97922.31;;;20.39;47.28
34983;BME280;21187;50.976;13.720;2022-09-09T06:07:55;97936.81;;;20.43;47.07
34983;BME280;21187;50.976;13.720;2022-09-09T06:12:58;97924.47;;;20.51;47.05
34983;BME280;21187;50.976;13.720;2022-09-09T06:18:00;97930.44;;;20.66;46.77
34983;BME280;21187;50.976;13.720;2022-09-09T06:23:03;97921.06;;;20.84;46.51
34983;BME280;21187;50.976;13.720;2022-09-09T06:28:05;97940.03;;;20.98;46.31
34983;BME280;21187;50.976;13.720;2022-09-09T06:33:07;97930.03;;;21.08;46.07
34983;BME280;21187;50.976;13.720;2022-09-09T06:38:09;97937.69;;;21.17;45.86
34983;BME280;21187;50.976;13.720;2022-09-09T06:43:11;97927.91;;;21.16;45.81
34983;BME280;21187;50.976;13.720;2022-09-09T06:48:20;97934.94;;;21.17;46.11
34983;BME280;21187;50.976;13.720;2022-09-09T06:53:23;97933.94;;;21.27;45.93
34983;BME280;21187;50.976;13.720;2022-09-09T06:58:26;97938.41;;;21.37;45.85
34983;BME280;21187;50.976;13.720;2022-09-09T07:03:30;97941.75;;;21.65;45.42
34983;BME280;21187;50.976;13.720;2022-09-09T07:08:32;97942.09;;;21.84;45.17
34983;BME280;21187;50.976;13.720;2022-09-09T07:13:35;97926.84;;;21.96;44.88
34983;BME280;21187;50.976;13.720;2022-09-09T07:18:38;97925.84;;;22.19;44.86
34983;BME280;21187;50.976;13.720;2022-09-09T07:23:41;97922.47;;;22.44;44.96
34983;BME280;21187;50.976;13.720;2022-09-09T07:28:43;97932.41;;;22.84;44.76
34983;BME280;21187;50.976;13.720;2022-09-09T07:33:46;97925.38;;;23.08;44.28
34983;BME280;21187;50.976;13.720;2022-09-09T07:38:52;97933.59;;;23.38;44.13
34983;BME280;21187;50.976;13.720;2022-09-09T07:43:54;97937.13;;;23.64;44.42
34983;BME280;21187;50.976;13.720;2022-09-09T07:48:57;97936.41;;;23.86;43.73
34983;BME280;21187;50.976;13.720;2022-09-09T07:54:08;97930.06;;;24.11;43.28
34983;BME280;21187;50.976;13.720;2022-09-09T07:59:13;97936.63;;;24.39;43.07
34983;BME280;21187;50.976;13.720;2022-09-09T08:04:18;97944.81;;;24.65;43.21
34983;BME280;21187;50.976;13.720;2022-09-09T08:09:22;97945.03;;;24.71;42.65
34983;BME280;21187;50.976;13.720;2022-09-09T08:14:27;97955.88;;;24.43;42.56
34983;BME280;21187;50.976;13.720;2022-09-09T08:19:30;97956.22;;;24.10;42.02
34983;BME280;21187;50.976;13.720;2022-09-09T08:24:36;97960.84;;;23.87;42.38
34983;BME280;21187;50.976;13.720;2022-09-09T08:29:38;97965.41;;;23.68;42.57
34983;BME280;21187;50.976;13.720;2022-09-09T08:34:40;97971.84;;;23.65;42.97
34983;BME280;21187;50.976;13.720;2022-09-09T08:39:53;97963.56;;;23.65;42.81
34983;BME280;21187;50.976;13.720;2022-09-09T08:50:27;97970.38;;;23.73;43.18
34983;BME280;21187;50.976;13.720;2022-09-09T08:55:48;97967.94;;;24.01;42.95
34983;BME280;21187;50.976;13.720;2022-09-09T09:11:49;97990.41;;;24.03;42.60
34983;BME280;21187;50.976;13.720;2022-09-09T09:16:57;97999.25;;;23.47;44.06
34983;BME280;21187;50.976;13.720;2022-09-09T09:22:18;97991.00;;;23.04;45.73
34983;BME280;21187;50.976;13.720;2022-09-09T09:37:54;97987.38;;;22.49;47.51
34983;BME280;21187;50.976;13.720;2022-09-09T09:43:28;97980.53;;;22.83;47.52
34983;BME280;21187;50.976;13.720;2022-09-09T09:48:33;97994.47;;;23.21;47.41
34983;BME280;21187;50.976;13.720;2022-09-09T09:53:37;97983.66;;;23.53;47.03
34983;BME280;21187;50.976;13.720;2022-09-09T10:03:53;97966.44;;;24.22;46.00
34983;BME280;21187;50.976;13.720;2022-09-09T10:08:55;97974.53;;;24.52;45.05
34983;BME280;21187;50.976;13.720;2022-09-09T10:19:33;97955.38;;;25.02;44.26
34983;BME280;21187;50.976;13.720;2022-09-09T10:30:08;97957.63;;;25.48;44.05
34983;BME280;21187;50.976;13.720;2022-09-09T10:35:38;97943.56;;;25.83;43.72
34983;BME280;21187;50.976;13.720;2022-09-09T10:51:28;97922.34;;;26.35;41.96
34983;BME280;21187;50.976;13.720;2022-09-09T10:56:32;97923.13;;;26.17;42.48
34983;BME280;21187;50.976;13.720;2022-09-09T11:06:56;97914.66;;;26.39;42.60
34983;BME280;21187;50.976;13.720;2022-09-09T11:12:00;97927.47;;;26.28;42.91
34983;BME280;21187;50.976;13.720;2022-09-09T11:17:15;97942.06;;;26.00;43.02
34983;BME280;21187;50.976;13.720;2022-09-09T11:43:15;97910.47;;;25.38;44.67
34983;BME280;21187;50.976;13.720;2022-09-09T11:53:28;97911.06;;;26.02;44.38
34983;BME280;21187;50.976;13.720;2022-09-09T11:58:36;97907.84;;;26.31;44.17
34983;BME280;21187;50.976;13.720;2022-09-09T12:03:48;97912.63;;;26.58;43.62
34983;BME280;21187;50.976;13.720;2022-09-09T12:09:04;97897.66;;;26.74;43.38
34983;BME280;21187;50.976;13.720;2022-09-09T12:14:19;97877.94;;;26.72;44.15
34983;BME280;21187;50.976;13.720;2022-09-09T12:19:22;97886.50;;;26.93;43.80
34983;BME280;21187;50.976;13.720;2022-09-09T12:29:55;97871.38;;;27.28;43.32
34983;BME280;21187;50.976;13.720;2022-09-09T12:35:11;97864.41;;;27.32;43.25
34983;BME280;21187;50.976;13.720;2022-09-09T12:45:21;97872.91;;;27.29;42.75
34983;BME280;21187;50.976;13.720;2022-09-09T12:50:30;97880.09;;;27.11;42.92
34983;BME280;21187;50.976;13.720;2022-09-09T12:55:35;97866.00;;;27.24;42.76
34983;BME280;21187;50.976;13.720;2022-09-09T13:00:49;97855.28;;;27.65;42.34
34983;BME280;21187;50.976;13.720;2022-09-09T13:05:53;97851.13;;;27.85;40.59
34983;BME280;21187;50.976;13.720;2022-09-09T13:11:03;97841.31;;;27.75;37.71
34983;BME280;21187;50.976;13.720;2022-09-09T13:16:30;97832.88;;;27.35;37.66
34983;BME280;21187;50.976;13.720;2022-09-09T13:21:37;97833.75;;;27.51;36.64
34983;BME280;21187;50.976;13.720;2022-09-09T13:26:40;97831.72;;;27.76;35.93
34983;BME280;21187;50.976;13.720;2022-09-09T13:31:41;97833.66;;;28.09;35.03
34983;BME280;21187;50.976;13.720;2022-09-09T13:36:47;97817.75;;;28.39;34.49
34983;BME280;21187;50.976;13.720;2022-09-09T13:41:50;97838.88;;;28.46;34.40
34983;BME280;21187;50.976;13.720;2022-09-09T13:47:06;97832.03;;;28.17;34.61
34983;BME280;21187;50.976;13.720;2022-09-09T13:52:19;97843.28;;;27.98;35.15
34983;BME280;21187;50.976;13.720;2022-09-09T13:57:24;97835.84;;;28.04;35.12
34983;BME280;21187;50.976;13.720;2022-09-09T14:02:26;97851.72;;;27.89;34.92
34983;BME280;21187;50.976;13.720;2022-09-09T14:07:28;97843.19;;;27.68;35.16
34983;BME280;21187;50.976;13.720;2022-09-09T14:12:30;97840.44;;;27.44;35.60
34983;BME280;21187;50.976;13.720;2022-09-09T14:17:33;97831.03;;;27.42;36.15
34983;BME280;21187;50.976;13.720;2022-09-09T14:22:36;97826.53;;;27.44;36.08
34983;BME280;21187;50.976;13.720;2022-09-09T14:27:38;97820.50;;;27.46;36.39
34983;BME280;21187;50.976;13.720;2022-09-09T14:32:41;97825.09;;;27.49;36.30
34983;BME280;21187;50.976;13.720;2022-09-09T14:37:42;97826.41;;;27.38;36.44
34983;BME280;21187;50.976;13.720;2022-09-09T14:42:45;97822.41;;;27.30;36.74
34983;BME280;21187;50.976;13.720;2022-09-09T14:47:47;97820.63;;;27.18;37.00
34983;BME280;21187;50.976;13.720;2022-09-09T14:52:49;97818.16;;;27.11;36.88
34983;BME280;21187;50.976;13.720;2022-09-09T14:57:52;97821.50;;;26.90;37.11
34983;BME280;21187;50.976;13.720;2022-09-09T15:02:54;97831.47;;;26.64;36.81
34983;BME280;21187;50.976;13.720;2022-09-09T15:07:56;97835.97;;;26.52;37.04
34983;BME280;21187;50.976;13.720;2022-09-09T15:12:58;97826.41;;;26.53;36.96
34983;BME280;21187;50.976;13.720;2022-09-09T15:18:00;97818.41;;;26.36;37.48
34983;BME280;21187;50.976;13.720;2022-09-09T15:23:02;97827.66;;;26.33;37.82
34983;BME280;21187;50.976;13.720;2022-09-09T15:28:03;97835.06;;;26.36;38.09
34983;BME280;21187;50.976;13.720;2022-09-09T15:33:08;97826.91;;;26.23;39.49
34983;BME280;21187;50.976;13.720;2022-09-09T15:38:13;97839.06;;;25.98;39.78
34983;BME280;21187;50.976;13.720;2022-09-09T15:43:16;97841.22;;;25.85;40.45
34983;BME280;21187;50.976;13.720;2022-09-09T15:48:18;97831.69;;;25.86;40.59
34983;BME280;21187;50.976;13.720;2022-09-09T15:53:20;97816.88;;;25.98;40.72
34983;BME280;21187;50.976;13.720;2022-09-09T15:58:22;97822.16;;;26.05;40.89
34983;BME280;21187;50.976;13.720;2022-09-09T16:03:24;97821.22;;;26.08;40.99
34983;BME280;21187;50.976;13.720;2022-09-09T16:08:35;97813.22;;;26.11;41.38
34983;BME280;21187;50.976;13.720;2022-09-09T16:13:37;97815.38;;;26.06;41.62
34983;BME280;21187;50.976;13.720;2022-09-09T16:18:43;97817.47;;;26.02;41.63
34983;BME280;21187;50.976;13.720;2022-09-09T16:23:50;97817.19;;;25.91;41.79
34983;BME280;21187;50.976;13.720;2022-09-09T16:28:53;97828.91;;;25.77;41.87
34983;BME280;21187;50.976;13.720;2022-09-09T16:33:55;97824.56;;;25.66;42.04
34983;BME280;21187;50.976;13.720;2022-09-09T16:39:00;97833.81;;;25.63;42.07
34983;BME280;21187;50.976;13.720;2022-09-09T16:44:04;97823.03;;;25.65;42.38
34983;BME280;21187;50.976;13.720;2022-09-09T16:49:12;97830.25;;;25.63;42.21
34983;BME280;21187;50.976;13.720;2022-09-09T16:54:15;97847.38;;;25.61;42.18
34983;BME280;21187;50.976;13.720;2022-09-09T16:59:20;97852.91;;;25.52;41.70
34983;BME280;21187;50.976;13.720;2022-09-09T17:04:26;97849.81;;;25.50;41.34
34983;BME280;21187;50.976;13.720;2022-09-09T17:09:29;97862.38;;;25.32;41.12
34983;BME280;21187;50.976;13.720;2022-09-09T17:14:33;97852.63;;;25.18;40.56
34983;BME280;21187;50.976;13.720;2022-09-09T17:19:35;97869.03;;;25.03;40.68
34983;BME280;21187;50.976;13.720;2022-09-09T17:24:37;97863.41;;;24.85;40.70
34983;BME280;21187;50.976;13.720;2022-09-09T17:29:40;97868.25;;;24.71;40.27
34983;BME280;21187;50.976;13.720;2022-09-09T17:34:42;97873.59;;;24.43;40.22
34983;BME280;21187;50.976;13.720;2022-09-09T17:39:44;97873.84;;;24.14;39.50
34983;BME280;21187;50.976;13.720;2022-09-09T17:44:47;97873.44;;;24.03;39.59
34983;BME280;21187;50.976;13.720;2022-09-09T17:49:49;97879.88;;;23.87;39.36
34983;BME280;21187;50.976;13.720;2022-09-09T17:54:51;97894.44;;;23.65;39.23
34983;BME280;21187;50.976;13.720;2022-09-09T17:59:58;97914.25;;;23.38;39.37
34983;BME280;21187;50.976;13.720;2022-09-09T18:05:00;97915.69;;;23.30;39.31
34983;BME280;21187;50.976;13.720;2022-09-09T18:10:04;97916.25;;;23.37;39.23
34983;BME280;21187;50.976;13.720;2022-09-09T18:15:06;97920.31;;;23.46;39.25
34983;BME280;21187;50.976;13.720;2022-09-09T18:20:08;97913.34;;;23.41;38.93
34983;BME280;21187;50.976;13.720;2022-09-09T18:25:11;97913.78;;;23.26;39.24
34983;BME280;21187;50.976;13.720;2022-09-09T18:30:14;97914.34;;;23.34;39.57
34983;BME280;21187;50.976;13.720;2022-09-09T18:35:16;97917.34;;;23.40;39.47
34983;BME280;21187;50.976;13.720;2022-09-09T18:40:18;97930.59;;;23.32;39.74
34983;BME280;21187;50.976;13.720;2022-09-09T18:45:20;97918.91;;;23.28;39.78
34983;BME280;21187;50.976;13.720;2022-09-09T18:50:22;97920.78;;;23.31;39.95
34983;BME280;21187;50.976;13.720;2022-09-09T18:55:24;97923.31;;;23.25;40.17
34983;BME280;21187;50.976;13.720;2022-09-09T19:00:27;97930.78;;;23.12;40.51
34983;BME280;21187;50.976;13.720;2022-09-09T19:05:30;97931.09;;;23.01;40.70
34983;BME280;21187;50.976;13.720;2022-09-09T19:10:35;97921.13;;;22.91;40.99
34983;BME280;21187;50.976;13.720;2022-09-09T19:15:38;97933.94;;;22.85;41.34
34983;BME280;21187;50.976;13.720;2022-09-09T19:20:40;97937.16;;;22.83;41.77
34983;BME280;21187;50.976;13.720;2022-09-09T19:25:42;97929.97;;;22.86;41.71
34983;BME280;21187;50.976;13.720;2022-09-09T19:30:46;97937.03;;;22.87;41.96
34983;BME280;21187;50.976;13.720;2022-09-09T19:35:58;97933.94;;;22.85;42.15
34983;BME280;21187;50.976;13.720;2022-09-09T19:41:06;97931.72;;;22.80;42.07
34983;BME280;21187;50.976;13.720;2022-09-09T19:46:10;97932.63;;;22.76;41.62
34983;BME280;21187;50.976;13.720;2022-09-09T19:51:15;97934.34;;;22.70;41.68
34983;BME280;21187;50.976;13.720;2022-09-09T19:56:19;97931.63;;;22.83;41.44
34983;BME280;21187;50.976;13.720;2022-09-09T20:01:26;97937.03;;;22.87;41.32
34983;BME280;21187;50.976;13.720;2022-09-09T20:06:32;97938.41;;;22.66;42.23
34983;BME280;21187;50.976;13.720;2022-09-09T20:11:35;97948.81;;;22.74;41.99
34983;BME280;21187;50.976;13.720;2022-09-09T20:16:39;97947.81;;;22.68;42.51
34983;BME280;21187;50.976;13.720;2022-09-09T20:21:44;97946.84;;;22.46;43.01
34983;BME280;21187;50.976;13.720;2022-09-09T20:26:48;97958.41;;;22.40;43.18
34983;BME280;21187;50.976;13.720;2022-09-09T20:31:50;97959.44;;;22.47;42.85
34983;BME280;21187;50.976;13.720;2022-09-09T20:36:52;97965.84;;;22.43;42.48
34983;BME280;21187;50.976;13.720;2022-09-09T20:41:55;97961.53;;;22.42;42.32
34983;BME280;21187;50.976;13.720;2022-09-09T20:46:57;97964.28;;;22.42;42.19
34983;BME280;21187;50.976;13.720;2022-09-09T20:52:06;97972.03;;;22.48;42.08
34983;BME280;21187;50.976;13.720;2022-09-09T20:57:08;97971.00;;;22.41;42.24
34983;BME280;21187;50.976;13.720;2022-09-09T21:02:11;97974.78;;;22.31;42.69
34983;BME280;21187;50.976;13.720;2022-09-09T21:07:13;97979.97;;;22.29;43.05
34983;BME280;21187;50.976;13.720;2022-09-09T21:12:15;97974.19;;;22.23;42.97
34983;BME280;21187;50.976;13.720;2022-09-09T21:17:17;97972.06;;;22.15;43.05
34983;BME280;21187;50.976;13.720;2022-09-09T21:22:20;97973.28;;;22.14;43.40
34983;BME280;21187;50.976;13.720;2022-09-09T21:27:21;97983.63;;;22.09;43.62
34983;BME280;21187;50.976;13.720;2022-09-09T21:32:23;97980.84;;;22.09;43.47
34983;BME280;21187;50.976;13.720;2022-09-09T21:37:25;97978.94;;;22.06;43.62
34983;BME280;21187;50.976;13.720;2022-09-09T21:42:28;97983.44;;;22.00;43.68
34983;BME280;21187;50.976;13.720;2022-09-09T21:47:30;97971.03;;;21.92;43.72
34983;BME280;21187;50.976;13.720;2022-09-09T21:52:31;97976.66;;;21.88;43.70
34983;BME280;21187;50.976;13.720;2022-09-09T21:57:33;97964.13;;;21.84;43.81
34983;BME280;21187;50.976;13.720;2022-09-09T22:02:35;97969.22;;;21.69;44.11
34983;BME280;21187;50.976;13.720;2022-09-09T22:07:39;97963.97;;;21.58;43.95
34983;BME280;21187;50.976;13.720;2022-09-09T22:12:40;97968.84;;;21.50;43.87
34983;BME280;21187;50.976;13.720;2022-09-09T22:17:42;97964.09;;;21.51;43.77
34983;BME280;21187;50.976;13.720;2022-09-09T22:22:44;97957.56;;;21.44;43.37
34983;BME280;21187;50.976;13.720;2022-09-09T22:27:46;97956.50;;;21.38;43.06
34983;BME280;21187;50.976;13.720;2022-09-09T22:32:48;97952.88;;;21.25;43.22
34983;BME280;21187;50.976;13.720;2022-09-09T22:37:51;97958.00;;;21.23;42.97
34983;BME280;21187;50.976;13.720;2022-09-09T22:42:53;97950.44;;;21.10;42.94
34983;BME280;21187;50.976;13.720;2022-09-09T22:47:55;97943.00;;;21.07;42.85
34983;BME280;21187;50.976;13.720;2022-09-09T22:52:57;97938.50;;;20.97;42.84
34983;BME280;21187;50.976;13.720;2022-09-09T22:58:00;97933.38;;;20.79;42.90
34983;BME280;21187;50.976;13.720;2022-09-09T23:03:02;97932.88;;;20.64;43.11
34983;BME280;21187;50.976;13.720;2022-09-09T23:08:04;97912.53;;;20.58;43.12
34983;BME280;21187;50.976;13.720;2022-09-09T23:13:06;97914.16;;;20.55;43.17
34983;BME280;21187;50.976;13.720;2022-09-09T23:18:10;97918.75;;;20.62;42.98
34983;BME280;21187;50.976;13.720;2022-09-09T23:23:11;97923.53;;;20.58;43.02
34983;BME280;21187;50.976;13.720;2022-09-09T23:28:13;97928.47;;;20.47;43.15
34983;BME280;21187;50.976;13.720;2022-09-09T23:33:15;97923.94;;;20.36;43.40
34983;BME280;21187;50.976;13.720;2022-09-09T23:38:17;97924.44;;;20.31;43.53
34983;BME280;21187;50.976;13.720;2022-09-09T23:43:19;97929.72;;;20.22;43.72
34983;BME280;21187;50.976;13.720;2022-09-09T23:48:26;97933.78;;;20.14;44.15
34983;BME280;21187;50.976;13.720;2022-09-09T23:53:28;97940.88;;;20.11;44.23
34983;BME280;21187;50.976;13.720;2022-09-09T23:58:31;97932.31;;;20.09;44.31
